createdAt,value
2022-12-06T00:01:32.373Z,102100.56
2022-12-06T00:04:06.262Z,102098.69
2022-12-06T00:06:40.276Z,102102.91
2022-12-06T00:09:17.257Z,102101.88
2022-12-06T00:11:51.739Z,102104.13
2022-12-06T00:14:24.916Z,102106.34
2022-12-06T00:16:57.973Z,102096.28
2022-12-06T00:19:30.760Z,102097.28
2022-12-06T00:22:03.509Z,102102.25
2022-12-06T00:24:36.573Z,102104.97
2022-12-06T00:27:10.785Z,102100.63
2022-12-06T00:29:43.452Z,102096.91
2022-12-06T00:32:19.658Z,102093.28
2022-12-06T00:34:52.803Z,102091.47
2022-12-06T00:37:25.563Z,102090.59
2022-12-06T00:39:58.530Z,102093.69
2022-12-06T00:42:32.825Z,102089.84
2022-12-06T00:45:05.973Z,102084.72
2022-12-06T00:47:38.795Z,102080.19
2022-12-06T00:50:12.115Z,102086.47
2022-12-06T00:52:44.815Z,102086.25
2022-12-06T00:55:17.603Z,102093.53
2022-12-06T00:57:52.011Z,102084.78
2022-12-06T01:00:24.974Z,102090.47
2022-12-06T01:02:58.642Z,102090.88
2022-12-06T01:05:31.484Z,102085.09
2022-12-06T01:08:04.471Z,102088.63
2022-12-06T01:10:37.475Z,102088.31
2022-12-06T01:13:11.567Z,102081.69
2022-12-06T01:15:44.340Z,102082.88
2022-12-06T01:18:17.032Z,102087.72
2022-12-06T01:20:49.658Z,102083.56
2022-12-06T01:23:22.474Z,102081.28
2022-12-06T01:25:55.025Z,102089.44
2022-12-06T01:28:29.102Z,102086.03
2022-12-06T01:31:01.952Z,102079.97
2022-12-06T01:33:34.666Z,102083.31
2022-12-06T01:36:07.920Z,102084.31
2022-12-06T01:38:40.996Z,102084.94
2022-12-06T01:41:13.919Z,102081.47
2022-12-06T01:43:48.293Z,102077.75
2022-12-06T01:46:28.636Z,102085.81
2022-12-06T01:49:09.608Z,102085.31
2022-12-06T01:51:45.308Z,102085.31
2022-12-06T01:54:19.929Z,102088.53
2022-12-06T01:56:54.034Z,102082.59
2022-12-06T01:59:28.984Z,102087.03
2022-12-06T02:02:01.805Z,102080.16
2022-12-06T02:04:34.693Z,102083.56
2022-12-06T02:07:08.139Z,102071.88
2022-12-06T02:09:41.081Z,102070.44
2022-12-06T02:12:14.771Z,102072.69
2022-12-06T02:14:50.293Z,102075.28
2022-12-06T02:17:29.191Z,102068.03
2022-12-06T02:20:06.127Z,102067.06
2022-12-06T02:22:52.513Z,102067.97
2022-12-06T02:25:40.640Z,102078.75
2022-12-06T02:28:23.516Z,102068.47
2022-12-06T02:30:59.453Z,102066.84
2022-12-06T02:33:35.617Z,102065.88
2022-12-06T02:36:10.773Z,102064.38
2022-12-06T02:38:45.365Z,102063.53
2022-12-06T02:41:22.273Z,102062.22
2022-12-06T02:43:57.654Z,102070.69
2022-12-06T02:46:34.031Z,102068.28
2022-12-06T02:49:08.182Z,102061.63
2022-12-06T02:51:41.521Z,102059.97
2022-12-06T02:54:14.830Z,102063.66
2022-12-06T02:56:47.439Z,102059.81
2022-12-06T02:59:20.152Z,102066.84
2022-12-06T03:01:56.338Z,102062.22
2022-12-06T03:04:43.489Z,102072.31
2022-12-06T03:07:22.935Z,102067.66
2022-12-06T03:10:01.274Z,102077.53
2022-12-06T03:12:40.509Z,102066.25
2022-12-06T03:15:15.981Z,102076.78
2022-12-06T03:17:52.147Z,102077.38
2022-12-06T03:20:26.924Z,102076.53
2022-12-06T03:23:02.938Z,102067.13
2022-12-06T03:25:36.697Z,102062.00
2022-12-06T03:28:11.577Z,102067.88
2022-12-06T03:30:47.080Z,102056.59
2022-12-06T03:33:23.994Z,102057.41
2022-12-06T03:35:58.650Z,102067.16
2022-12-06T03:38:35.134Z,102068.97
2022-12-06T03:41:08.785Z,102065.88
2022-12-06T03:43:41.513Z,102071.25
2022-12-06T03:46:16.041Z,102074.91
2022-12-06T03:48:51.815Z,102071.06
2022-12-06T03:51:27.267Z,102070.44
2022-12-06T03:54:01.322Z,102064.41
2022-12-06T03:56:36.674Z,102058.59
2022-12-06T03:59:10.618Z,102062.41
2022-12-06T04:01:43.279Z,102068.66
2022-12-06T04:04:17.709Z,102059.56
2022-12-06T04:06:50.738Z,102063.91
2022-12-06T04:09:41.292Z,102067.25
2022-12-06T04:12:33.563Z,102063.72
2022-12-06T04:15:07.240Z,102064.34
2022-12-06T04:17:58.255Z,102059.31
2022-12-06T04:20:52.978Z,102060.56
2022-12-06T04:23:24.732Z,102058.63
2022-12-06T04:25:57.832Z,102055.69
2022-12-06T04:28:47.798Z,102060.47
2022-12-06T04:31:37.847Z,102051.00
2022-12-06T04:34:28.108Z,102061.88
2022-12-06T04:37:19.894Z,102050.50
2022-12-06T04:39:52.559Z,102054.25
2022-12-06T04:42:43.012Z,102058.66
2022-12-06T04:45:15.593Z,102054.84
2022-12-06T04:47:48.252Z,102054.66
2022-12-06T04:50:20.833Z,102057.06
2022-12-06T04:52:54.816Z,102055.16
2022-12-06T04:55:27.334Z,102059.56
2022-12-06T04:57:59.862Z,102060.28
2022-12-06T05:00:32.827Z,102047.47
2022-12-06T05:03:05.417Z,102049.81
2022-12-06T05:05:38.138Z,102033.69
2022-12-06T05:08:12.489Z,102040.09
2022-12-06T05:10:47.773Z,102035.91
2022-12-06T05:13:20.924Z,102044.69
2022-12-06T05:15:54.624Z,102041.38
2022-12-06T05:18:27.379Z,102045.16
2022-12-06T05:21:03.836Z,102038.94
2022-12-06T05:23:38.155Z,102045.88
2022-12-06T05:26:12.271Z,102044.75
2022-12-06T05:28:45.424Z,102034.19
2022-12-06T05:31:18.685Z,102041.69
2022-12-06T05:33:51.970Z,102042.19
2022-12-06T05:36:27.727Z,102042.78
2022-12-06T05:39:01.616Z,102042.06
2022-12-06T05:41:34.190Z,102052.44
2022-12-06T05:44:07.156Z,102049.25
2022-12-06T05:46:40.034Z,102053.75
2022-12-06T05:49:12.912Z,102048.19
2022-12-06T05:51:45.801Z,102045.78
2022-12-06T05:54:20.473Z,102036.53
2022-12-06T05:56:53.066Z,102043.78
2022-12-06T05:59:25.631Z,102044.19
2022-12-06T06:01:58.388Z,102040.53
2022-12-06T06:04:31.153Z,102038.75
2022-12-06T06:07:03.806Z,102045.16
2022-12-06T06:09:37.873Z,102057.78
2022-12-06T06:12:12.730Z,102057.00
2022-12-06T06:14:45.942Z,102055.47
2022-12-06T06:17:18.775Z,102047.16
2022-12-06T06:19:51.785Z,102054.34
2022-12-06T06:22:24.678Z,102052.41
2022-12-06T06:24:59.190Z,102051.13
2022-12-06T06:27:33.812Z,102050.81
2022-12-06T06:30:07.222Z,102055.47
2022-12-06T06:32:40.212Z,102046.97
2022-12-06T06:35:13.145Z,102040.44
2022-12-06T06:37:46.074Z,102037.69
2022-12-06T06:40:20.395Z,102037.91
2022-12-06T06:42:53.049Z,102035.28
2022-12-06T06:45:28.885Z,102035.28
2022-12-06T06:48:01.925Z,102036.72
2022-12-06T06:50:34.629Z,102035.91
2022-12-06T06:53:07.560Z,102027.25
2022-12-06T06:55:41.538Z,102024.41
2022-12-06T06:58:14.743Z,102028.25
2022-12-06T07:00:47.487Z,102022.59
2022-12-06T07:03:20.779Z,102021.31
2022-12-06T07:05:53.984Z,102015.06
2022-12-06T07:08:27.509Z,102020.81
2022-12-06T07:11:02.423Z,102023.03
2022-12-06T07:13:35.919Z,102030.09
2022-12-06T07:16:09.622Z,102032.38
2022-12-06T07:18:42.454Z,102035.34
2022-12-06T07:21:16.303Z,102034.94
2022-12-06T07:23:48.992Z,102021.34
2022-12-06T07:26:24.104Z,102030.94
2022-12-06T07:28:57.661Z,102027.09
2022-12-06T07:31:31.650Z,102027.41
2022-12-06T07:34:04.461Z,102035.75
2022-12-06T07:36:37.101Z,102038.28
2022-12-06T07:39:14.491Z,102040.81
2022-12-06T07:42:06.565Z,102035.34
2022-12-06T07:45:07.625Z,102037.59
2022-12-06T07:47:41.625Z,102034.38
2022-12-06T07:50:18.152Z,102035.97
2022-12-06T07:52:51.656Z,102048.25
2022-12-06T07:55:24.243Z,102052.88
2022-12-06T07:57:58.257Z,102050.88
2022-12-06T08:00:31.499Z,102052.31
2022-12-06T08:03:04.311Z,102049.28
2022-12-06T08:05:36.987Z,102050.09
2022-12-06T08:08:09.713Z,102046.06
2022-12-06T08:10:42.762Z,102049.91
2022-12-06T08:13:16.880Z,102044.66
2022-12-06T08:15:49.469Z,102047.47
2022-12-06T08:18:22.603Z,102048.88
2022-12-06T08:20:55.521Z,102047.59
2022-12-06T08:23:33.923Z,102043.53
2022-12-06T08:26:08.598Z,102047.91
2022-12-06T08:28:43.642Z,102042.16
2022-12-06T08:31:17.406Z,102044.47
2022-12-06T08:33:50.538Z,102049.50
2022-12-06T08:36:24.001Z,102048.19
2022-12-06T08:38:57.186Z,102045.84
2022-12-06T08:41:47.444Z,102047.28
2022-12-06T08:44:21.774Z,102054.94
2022-12-06T08:46:55.322Z,102058.16
2022-12-06T08:49:29.578Z,102044.06
2022-12-06T08:52:02.089Z,102049.38
2022-12-06T08:54:36.763Z,102043.25
2022-12-06T08:57:09.517Z,102051.28
2022-12-06T08:59:43.696Z,102048.56
2022-12-06T09:02:16.421Z,102052.09
2022-12-06T09:04:51.545Z,102058.25
2022-12-06T09:07:26.304Z,102056.56
2022-12-06T09:09:59.313Z,102063.69
2022-12-06T09:12:32.048Z,102057.13
2022-12-06T09:15:06.540Z,102051.53
2022-12-06T09:17:39.253Z,102052.31
2022-12-06T09:20:18.222Z,102057.97
2022-12-06T09:22:50.990Z,102062.78
2022-12-06T09:25:23.645Z,102062.78
2022-12-06T09:27:56.240Z,102064.09
2022-12-06T09:30:30.397Z,102061.88
2022-12-06T09:33:03.104Z,102052.00
2022-12-06T09:35:36.204Z,102062.38
2022-12-06T09:38:09.003Z,102055.34
2022-12-06T09:40:48.356Z,102060.66
2022-12-06T09:43:28.177Z,102063.91
2022-12-06T09:46:06.476Z,102058.94
2022-12-06T09:48:54.024Z,102070.22
2022-12-06T09:51:33.713Z,102063.97
2022-12-06T09:54:12.651Z,102066.59
2022-12-06T09:56:48.448Z,102066.16
2022-12-06T09:59:23.326Z,102068.59
2022-12-06T10:02:05.180Z,102074.81
2022-12-06T10:04:54.533Z,102068.75
2022-12-06T10:07:33.957Z,102066.22
2022-12-06T10:10:15.757Z,102059.06
2022-12-06T10:13:03.659Z,102058.81
2022-12-06T10:15:45.302Z,102056.19
2022-12-06T10:18:27.461Z,102058.75
2022-12-06T10:21:04.043Z,102057.34
2022-12-06T10:23:42.844Z,102058.91
2022-12-06T10:26:17.010Z,102058.59
2022-12-06T10:28:53.394Z,102050.91
2022-12-06T10:31:29.035Z,102046.94
2022-12-06T10:34:08.671Z,102046.56
2022-12-06T10:36:43.451Z,102038.56
2022-12-06T10:39:19.337Z,102045.69
2022-12-06T10:41:55.287Z,102041.94
2022-12-06T10:44:33.134Z,102039.94
2022-12-06T10:47:08.649Z,102041.50
2022-12-06T10:49:47.492Z,102038.81
2022-12-06T10:52:37.825Z,102043.03
2022-12-06T10:55:16.769Z,102039.19
2022-12-06T10:57:51.885Z,102038.78
2022-12-06T11:00:25.369Z,102032.94
2022-12-06T11:03:01.839Z,102029.56
2022-12-06T11:05:39.099Z,102037.94
2022-12-06T11:08:12.775Z,102028.63
2022-12-06T11:10:49.065Z,102029.44
2022-12-06T11:13:23.149Z,102025.50
2022-12-06T11:15:57.619Z,102027.38
2022-12-06T11:18:33.158Z,102018.81
2022-12-06T11:21:13.318Z,102022.16
2022-12-06T11:23:49.090Z,102023.78
2022-12-06T11:26:28.246Z,102019.97
2022-12-06T11:29:06.148Z,102018.97
2022-12-06T11:31:42.055Z,102016.78
2022-12-06T11:34:16.465Z,102017.59
2022-12-06T11:36:56.652Z,102013.84
2022-12-06T11:39:32.768Z,102002.78
2022-12-06T11:42:05.919Z,102011.56
2022-12-06T11:44:49.293Z,102002.56
2022-12-06T11:47:23.615Z,102001.28
2022-12-06T11:49:59.507Z,102003.38
2022-12-06T11:52:38.291Z,101994.41
2022-12-06T11:55:16.388Z,102008.56
2022-12-06T11:57:51.570Z,102002.44
2022-12-06T12:00:25.016Z,102001.31
2022-12-06T12:02:57.963Z,102001.47
2022-12-06T12:05:34.208Z,102002.09
2022-12-06T12:08:17.088Z,101999.84
2022-12-06T12:10:58.728Z,102009.97
2022-12-06T12:13:47.420Z,102001.06
2022-12-06T12:16:21.600Z,102003.28
2022-12-06T12:18:56.487Z,101994.19
2022-12-06T12:21:34.043Z,101985.00
2022-12-06T12:24:30.369Z,101986.38
2022-12-06T12:27:03.486Z,101978.53
2022-12-06T12:29:36.185Z,101969.59
2022-12-06T12:32:11.484Z,101970.06
2022-12-06T12:34:44.206Z,101967.66
2022-12-06T12:37:21.200Z,101952.25
2022-12-06T12:39:55.453Z,101950.13
2022-12-06T12:42:29.000Z,101944.34
2022-12-06T12:45:03.896Z,101949.16
2022-12-06T12:47:36.770Z,101954.28
2022-12-06T12:50:18.612Z,101954.28
2022-12-06T12:52:52.239Z,101957.81
2022-12-06T12:55:27.851Z,101950.59
2022-12-06T12:58:01.185Z,101944.00
2022-12-06T13:00:38.741Z,101941.28
2022-12-06T13:03:34.899Z,101945.44
2022-12-06T13:06:06.697Z,101941.44
2022-12-06T13:08:40.212Z,101942.25
2022-12-06T13:11:14.208Z,101933.84
2022-12-06T13:13:50.604Z,101941.72
2022-12-06T13:16:27.149Z,101937.38
2022-12-06T13:19:00.127Z,101933.97
2022-12-06T13:21:33.838Z,101932.38
2022-12-06T13:24:08.912Z,101930.78
2022-12-06T13:26:45.506Z,101930.75
2022-12-06T13:29:23.566Z,101924.16
2022-12-06T13:31:57.495Z,101919.34
2022-12-06T13:34:36.177Z,101920.91
2022-12-06T13:37:29.328Z,101909.63
2022-12-06T13:40:02.884Z,101910.91
2022-12-06T13:42:45.511Z,101905.72
2022-12-06T13:45:32.986Z,101902.66
2022-12-06T13:48:27.559Z,101904.94
2022-12-06T13:51:02.706Z,101911.78
2022-12-06T13:53:55.407Z,101908.13
2022-12-06T13:56:28.861Z,101906.38
2022-12-06T13:59:02.033Z,101909.72
2022-12-06T14:01:40.081Z,101909.91
2022-12-06T14:09:40.601Z,101898.34
2022-12-06T14:12:18.787Z,101897.19
2022-12-06T14:14:57.952Z,101894.00
2022-12-06T14:18:01.497Z,101890.97
2022-12-06T14:20:31.408Z,101886.66
2022-12-06T14:23:18.982Z,101893.38
2022-12-06T14:25:52.964Z,101895.50
2022-12-06T14:28:25.639Z,101888.25
2022-12-06T14:31:05.070Z,101893.72
2022-12-06T14:33:39.917Z,101886.81
2022-12-06T14:36:17.596Z,101882.50
2022-12-06T14:38:54.831Z,101883.63
2022-12-06T14:41:54.161Z,101879.94
2022-12-06T14:44:29.325Z,101875.94
2022-12-06T14:47:02.027Z,101871.00
2022-12-06T14:49:54.000Z,101865.03
2022-12-06T14:52:28.104Z,101870.31
2022-12-06T14:55:16.380Z,101871.78
2022-12-06T14:57:52.623Z,101871.00
2022-12-06T15:00:27.973Z,101864.56
2022-12-06T15:03:22.286Z,101859.94
2022-12-06T15:06:10.619Z,101863.03
2022-12-06T15:08:44.712Z,101864.66
2022-12-06T15:11:48.584Z,101862.75
2022-12-06T15:14:23.519Z,101862.88
2022-12-06T15:16:58.061Z,101863.53
2022-12-06T15:19:31.958Z,101863.69
2022-12-06T15:22:05.314Z,101864.03
2022-12-06T15:24:37.911Z,101864.41
2022-12-06T15:27:13.360Z,101854.13
2022-12-06T15:29:47.377Z,101844.50
2022-12-06T15:32:22.656Z,101861.22
2022-12-06T15:34:55.377Z,101854.97
2022-12-06T15:37:38.850Z,101856.41
2022-12-06T15:40:28.117Z,101857.38
2022-12-06T15:43:03.706Z,101865.41
2022-12-06T15:45:38.358Z,101859.78
2022-12-06T15:48:11.464Z,101862.69
2022-12-06T15:50:55.252Z,101863.78
2022-12-06T15:53:29.266Z,101863.31
2022-12-06T15:56:06.194Z,101853.53
2022-12-06T15:58:41.863Z,101851.59
2022-12-06T16:01:18.551Z,101849.34
2022-12-06T16:03:53.222Z,101864.44
2022-12-06T16:06:29.379Z,101863.19
2022-12-06T16:09:02.270Z,101858.19
2022-12-06T16:11:36.226Z,101859.31
2022-12-06T16:14:09.630Z,101863.78
2022-12-06T16:16:44.043Z,101852.25
2022-12-06T16:19:16.802Z,101855.31
2022-12-06T16:21:53.900Z,101852.06
2022-12-06T16:24:25.807Z,101850.66
2022-12-06T16:26:58.641Z,101842.47
2022-12-06T16:29:31.304Z,101844.22
2022-12-06T16:32:05.459Z,101848.09
2022-12-06T16:34:38.370Z,101854.50
2022-12-06T16:37:12.397Z,101848.72
2022-12-06T16:39:45.517Z,101831.41
2022-12-06T16:42:18.370Z,101832.19
2022-12-06T16:44:53.844Z,101837.31
2022-12-06T16:49:59.596Z,101837.66
2022-12-06T16:52:32.199Z,101839.44
2022-12-06T16:55:05.078Z,101835.59
2022-12-06T16:57:38.241Z,101829.47
2022-12-06T17:00:14.853Z,101826.28
2022-12-06T17:02:49.350Z,101825.81
2022-12-06T17:05:27.190Z,101822.44
2022-12-06T17:08:00.097Z,101815.69
2022-12-06T17:10:35.475Z,101819.84
2022-12-06T17:13:08.762Z,101812.97
2022-12-06T17:15:41.441Z,101812.97
2022-12-06T17:18:15.572Z,101820.34
2022-12-06T17:20:48.287Z,101809.59
2022-12-06T17:23:21.528Z,101816.97
2022-12-06T17:25:58.310Z,101809.59
2022-12-06T17:28:33.512Z,101809.41
2022-12-06T17:31:09.520Z,101812.34
2022-12-06T17:33:44.148Z,101807.84
2022-12-06T17:36:20.779Z,101814.06
2022-12-06T17:38:58.655Z,101818.75
2022-12-06T17:41:52.012Z,101820.22
2022-12-06T17:44:24.939Z,101804.66
2022-12-06T17:47:00.163Z,101810.44
2022-12-06T17:49:36.261Z,101813.94
2022-12-06T17:52:10.530Z,101805.13
2022-12-06T17:54:43.376Z,101805.13
2022-12-06T17:57:18.212Z,101809.91
2022-12-06T17:59:51.303Z,101811.22
2022-12-06T18:02:26.899Z,101806.06
2022-12-06T18:05:01.774Z,101808.97
2022-12-06T18:07:35.267Z,101810.38
2022-12-06T18:10:08.712Z,101817.75
2022-12-06T18:12:41.353Z,101814.72
2022-12-06T18:15:28.143Z,101816.50
2022-12-06T18:18:00.812Z,101809.44
2022-12-06T18:20:35.148Z,101813.28
2022-12-06T18:23:07.778Z,101812.47
2022-12-06T18:25:40.842Z,101814.41
2022-12-06T18:28:13.477Z,101812.16
2022-12-06T18:30:46.118Z,101824.34
2022-12-06T18:33:21.919Z,101819.53
2022-12-06T18:35:57.531Z,101820.31
2022-12-06T18:38:30.891Z,101816.66
2022-12-06T18:41:03.934Z,101814.72
2022-12-06T18:43:37.213Z,101814.41
2022-12-06T18:46:12.581Z,101814.72
2022-12-06T18:48:47.396Z,101818.72
2022-12-06T18:51:23.054Z,101822.44
2022-12-06T18:53:56.893Z,101815.19
2022-12-06T18:56:30.474Z,101821.44
2022-12-06T18:59:04.842Z,101833.19
2022-12-06T19:01:38.842Z,101834.13
2022-12-06T19:04:14.719Z,101824.19
2022-12-06T19:06:49.073Z,101815.69
2022-12-06T19:09:22.519Z,101821.75
2022-12-06T19:11:55.142Z,101821.28
2022-12-06T19:14:27.776Z,101824.19
2022-12-06T19:17:00.522Z,101820.66
2022-12-06T19:19:35.079Z,101821.63
2022-12-06T19:22:09.897Z,101818.56
2022-12-06T19:24:42.496Z,101819.53
2022-12-06T19:27:18.470Z,101825.00
2022-12-06T19:29:53.135Z,101832.19
2022-12-06T19:32:26.414Z,101835.25
2022-12-06T19:35:01.473Z,101840.06
2022-12-06T19:37:39.740Z,101835.56
2022-12-06T19:40:12.891Z,101833.00
2022-12-06T19:43:03.213Z,101827.25
2022-12-06T19:45:35.893Z,101837.81
2022-12-06T19:48:08.634Z,101826.75
2022-12-06T19:50:41.234Z,101836.22
2022-12-06T19:53:15.394Z,101826.13
2022-12-06T19:55:47.952Z,101824.34
2022-12-06T19:58:22.711Z,101823.22
2022-12-06T20:00:55.331Z,101828.66
2022-12-06T20:03:28.706Z,101826.41
2022-12-06T20:06:02.236Z,101837.81
2022-12-06T20:08:37.692Z,101833.78
2022-12-06T20:11:31.437Z,101836.22
2022-12-06T20:14:06.660Z,101835.91
2022-12-06T20:16:39.268Z,101831.72
2022-12-06T20:19:13.219Z,101824.66
2022-12-06T20:21:46.161Z,101829.81
2022-12-06T20:24:21.626Z,101835.09
2022-12-06T20:26:55.767Z,101827.53
2022-12-06T20:29:30.024Z,101823.06
2022-12-06T20:32:03.201Z,101823.06
2022-12-06T20:34:35.942Z,101837.50
2022-12-06T20:37:08.465Z,101833.66
2022-12-06T20:39:43.078Z,101832.84
2022-12-06T20:42:15.922Z,101842.44
2022-12-06T20:44:48.543Z,101837.00
2022-12-06T20:47:21.346Z,101840.22
2022-12-06T20:49:54.300Z,101829.63
2022-12-06T20:52:26.932Z,101829.16
2022-12-06T20:55:00.977Z,101836.19
2022-12-06T20:57:33.671Z,101830.75
2022-12-06T21:00:07.998Z,101830.28
2022-12-06T21:02:43.166Z,101824.81
2022-12-06T21:05:17.154Z,101815.03
2022-12-06T21:07:51.474Z,101814.09
2022-12-06T21:10:25.598Z,101811.03
2022-12-06T21:13:02.769Z,101812.78
2022-12-06T21:15:38.553Z,101815.53
2022-12-06T21:18:11.955Z,101817.75
2022-12-06T21:20:46.154Z,101813.78
2022-12-06T21:23:18.882Z,101818.25
2022-12-06T21:25:53.266Z,101820.81
2022-12-06T21:28:37.067Z,101820.03
2022-12-06T21:31:09.881Z,101817.78
2022-12-06T21:33:42.558Z,101820.97
2022-12-06T21:36:15.145Z,101817.91
2022-12-06T21:38:47.767Z,101819.53
2022-12-06T21:41:22.059Z,101810.22
2022-12-06T21:43:54.763Z,101817.13
2022-12-06T21:46:28.074Z,101809.88
2022-12-06T21:49:02.087Z,101811.00
2022-12-06T21:51:35.341Z,101816.47
2022-12-06T21:54:08.105Z,101819.66
2022-12-06T21:56:42.557Z,101833.00
2022-12-06T21:59:15.239Z,101829.16
2022-12-06T22:01:50.575Z,101825.91
2022-12-06T22:04:23.219Z,101833.13
2022-12-06T22:06:56.129Z,101828.16
2022-12-06T22:09:28.818Z,101822.38
2022-12-06T22:12:03.013Z,101828.81
2022-12-06T22:14:35.741Z,101833.63
2022-12-06T22:17:09.036Z,101836.47
2022-12-06T22:19:41.857Z,101848.50
2022-12-06T22:22:14.850Z,101859.59
2022-12-06T22:24:48.433Z,101859.25
2022-12-06T22:27:22.384Z,101850.28
2022-12-06T22:29:55.255Z,101846.09
2022-12-06T22:32:27.863Z,101850.44
2022-12-06T22:35:00.533Z,101853.97
2022-12-06T22:37:33.256Z,101843.56
2022-12-06T22:40:06.625Z,101845.16
2022-12-06T22:42:40.762Z,101851.06
2022-12-06T22:45:13.398Z,101844.63
2022-12-06T22:47:46.771Z,101851.22
2022-12-06T22:50:19.530Z,101846.44
2022-12-06T22:52:52.317Z,101848.66
2022-12-06T22:55:24.908Z,101844.97
2022-12-06T22:57:58.846Z,101841.13
2022-12-06T23:00:31.556Z,101844.47
2022-12-06T23:03:04.234Z,101835.34
2022-12-06T23:05:36.804Z,101835.34
2022-12-06T23:08:09.612Z,101842.38
2022-12-06T23:10:42.406Z,101841.91
2022-12-06T23:13:16.547Z,101837.78
2022-12-06T23:15:55.286Z,101842.72
2022-12-06T23:18:28.619Z,101838.06
2022-12-06T23:21:05.478Z,101835.00
2022-12-06T23:23:39.368Z,101839.50
2022-12-06T23:26:13.419Z,101840.31
2022-12-06T23:28:47.569Z,101847.03
2022-12-06T23:31:21.319Z,101834.22
2022-12-06T23:33:54.908Z,101839.19
2022-12-06T23:36:30.275Z,101841.75
2022-12-06T23:39:02.910Z,101839.69
2022-12-06T23:41:36.020Z,101834.06
2022-12-06T23:44:11.215Z,101833.59
2022-12-06T23:46:45.701Z,101833.59
2022-12-06T23:49:19.448Z,101831.34
2022-12-06T23:51:52.241Z,101832.59
2022-12-06T23:54:24.849Z,101832.94
2022-12-06T23:56:57.407Z,101830.69
2022-12-06T23:59:31.589Z,101829.72
